<?xml version="1.0" encoding="UTF-8" standalone="no" ?>
<gpx xmlns="http://www.topografix.com/GPX/1/1" xmlns:xsi="http://www.w3.org/2001/XMLSchema-instance" xsi:schemaLocation="http://www.topografix.com/GPX/1/1 http://www.topografix.com/GPX/1/1/gpx.xsd" version="1.1" creator="VisuGPX - https://www.visugpx.com">
  <metadata>
    <name>Promenade Majorque Chateau</name>
    <desc><![CDATA[Promenade Majorque Chateau]]></desc>
  </metadata>
  <trk>
    <name><![CDATA[ACTIVE LOG192725]]></name>
    <trkseg>
      <trkpt lat="39.73268" lon="2.79259">
        <ele>730.693</ele>
        <time>2013-05-02T17:27:25Z</time>
      </trkpt>
      <trkpt lat="39.7326" lon="2.79315">
        <ele>745.905</ele>
        <time>2013-05-02T17:27:43Z</time>
      </trkpt>
      <trkpt lat="39.73247" lon="2.79329">
        <ele>750.644</ele>
        <time>2013-05-02T17:28:01Z</time>
      </trkpt>
      <trkpt lat="39.73246" lon="2.79351">
        <ele>757.926</ele>
        <time>2013-05-02T17:28:16Z</time>
      </trkpt>
      <trkpt lat="39.73253" lon="2.79375">
        <ele>769.953</ele>
        <time>2013-05-02T17:28:37Z</time>
      </trkpt>
      <trkpt lat="39.73249" lon="2.79385">
        <ele>780.019</ele>
        <time>2013-05-02T17:28:56Z</time>
      </trkpt>
      <trkpt lat="39.73248" lon="2.79394">
        <ele>791.3</ele>
        <time>2013-05-02T17:29:16Z</time>
      </trkpt>
      <trkpt lat="39.73249" lon="2.79398">
        <ele>800.493</ele>
        <time>2013-05-02T17:29:44Z</time>
      </trkpt>
      <trkpt lat="39.73252" lon="2.79392">
        <ele>809.73</ele>
        <time>2013-05-02T17:30:31Z</time>
      </trkpt>
      <trkpt lat="39.73254" lon="2.79385">
        <ele>809.255</ele>
        <time>2013-05-02T17:30:42Z</time>
      </trkpt>
      <trkpt lat="39.73257" lon="2.79379">
        <ele>808.681</ele>
        <time>2013-05-02T17:30:51Z</time>
      </trkpt>
      <trkpt lat="39.73267" lon="2.79372">
        <ele>808.18</ele>
        <time>2013-05-02T17:31:08Z</time>
      </trkpt>
      <trkpt lat="39.73271" lon="2.79364">
        <ele>807.848</ele>
        <time>2013-05-02T17:31:29Z</time>
      </trkpt>
      <trkpt lat="39.73256" lon="2.79356">
        <ele>807.998</ele>
        <time>2013-05-02T17:31:51Z</time>
      </trkpt>
      <trkpt lat="39.73245" lon="2.79348">
        <ele>808.412</ele>
        <time>2013-05-02T17:32:12Z</time>
      </trkpt>
      <trkpt lat="39.73238" lon="2.79353">
        <ele>808.493</ele>
        <time>2013-05-02T17:32:33Z</time>
      </trkpt>
      <trkpt lat="39.73235" lon="2.79341">
        <ele>808.448</ele>
        <time>2013-05-02T17:33:03Z</time>
      </trkpt>
      <trkpt lat="39.73249" lon="2.79315">
        <ele>808.503</ele>
        <time>2013-05-02T17:33:30Z</time>
      </trkpt>
      <trkpt lat="39.73251" lon="2.79312">
        <ele>808.52</ele>
        <time>2013-05-02T17:33:32Z</time>
      </trkpt>
      <trkpt lat="39.73262" lon="2.79289">
        <ele>804.055</ele>
        <time>2013-05-02T17:33:49Z</time>
      </trkpt>
      <trkpt lat="39.73269" lon="2.79287">
        <ele>801.457</ele>
        <time>2013-05-02T17:34:04Z</time>
      </trkpt>
      <trkpt lat="39.7327" lon="2.79286">
        <ele>801.346</ele>
        <time>2013-05-02T17:34:11Z</time>
      </trkpt>
      <trkpt lat="39.73274" lon="2.79286">
        <ele>800.687</ele>
        <time>2013-05-02T17:34:15Z</time>
      </trkpt>
      <trkpt lat="39.73272" lon="2.7928">
        <ele>799.364</ele>
        <time>2013-05-02T17:34:23Z</time>
      </trkpt>
      <trkpt lat="39.73273" lon="2.79273">
        <ele>796.846</ele>
        <time>2013-05-02T17:34:36Z</time>
      </trkpt>
      <trkpt lat="39.73284" lon="2.79278">
        <ele>797.043</ele>
        <time>2013-05-02T17:34:54Z</time>
      </trkpt>
      <trkpt lat="39.73288" lon="2.79279">
        <ele>796.156</ele>
        <time>2013-05-02T17:34:56Z</time>
      </trkpt>
      <trkpt lat="39.73294" lon="2.79273">
        <ele>795.692</ele>
        <time>2013-05-02T17:35:06Z</time>
      </trkpt>
      <trkpt lat="39.73297" lon="2.79274">
        <ele>796.312</ele>
        <time>2013-05-02T17:35:21Z</time>
      </trkpt>
      <trkpt lat="39.73294" lon="2.79275">
        <ele>796.681</ele>
        <time>2013-05-02T17:35:32Z</time>
      </trkpt>
      <trkpt lat="39.73292" lon="2.79277">
        <ele>797.535</ele>
        <time>2013-05-02T17:35:43Z</time>
      </trkpt>
      <trkpt lat="39.73293" lon="2.79276">
        <ele>797.469</ele>
        <time>2013-05-02T17:36:18Z</time>
      </trkpt>
      <trkpt lat="39.73295" lon="2.79276">
        <ele>796.942</ele>
        <time>2013-05-02T17:36:21Z</time>
      </trkpt>
      <trkpt lat="39.73298" lon="2.79276">
        <ele>796.681</ele>
        <time>2013-05-02T17:36:24Z</time>
      </trkpt>
      <trkpt lat="39.733" lon="2.79277">
        <ele>796.723</ele>
        <time>2013-05-02T17:36:26Z</time>
      </trkpt>
      <trkpt lat="39.73306" lon="2.79278">
        <ele>794.912</ele>
        <time>2013-05-02T17:36:33Z</time>
      </trkpt>
      <trkpt lat="39.73309" lon="2.79278">
        <ele>794.425</ele>
        <time>2013-05-02T17:36:37Z</time>
      </trkpt>
      <trkpt lat="39.73311" lon="2.7928">
        <ele>794.626</ele>
        <time>2013-05-02T17:36:39Z</time>
      </trkpt>
      <trkpt lat="39.73314" lon="2.79276">
        <ele>795.364</ele>
        <time>2013-05-02T17:36:47Z</time>
      </trkpt>
      <trkpt lat="39.73307" lon="2.79268">
        <ele>796.625</ele>
        <time>2013-05-02T17:37:02Z</time>
      </trkpt>
      <trkpt lat="39.73312" lon="2.79265">
        <ele>793.504</ele>
        <time>2013-05-02T17:37:50Z</time>
      </trkpt>
      <trkpt lat="39.73316" lon="2.79268">
        <ele>792.004</ele>
        <time>2013-05-02T17:37:58Z</time>
      </trkpt>
      <trkpt lat="39.73319" lon="2.79269">
        <ele>790.544</ele>
        <time>2013-05-02T17:38:01Z</time>
      </trkpt>
      <trkpt lat="39.73329" lon="2.79273">
        <ele>789.159</ele>
        <time>2013-05-02T17:38:12Z</time>
      </trkpt>
      <trkpt lat="39.73336" lon="2.79264">
        <ele>785.411</ele>
        <time>2013-05-02T17:38:26Z</time>
      </trkpt>
      <trkpt lat="39.7334" lon="2.79262">
        <ele>784.43</ele>
        <time>2013-05-02T17:38:33Z</time>
      </trkpt>
      <trkpt lat="39.73344" lon="2.7926">
        <ele>784.638</ele>
        <time>2013-05-02T17:38:38Z</time>
      </trkpt>
      <trkpt lat="39.7335" lon="2.7926">
        <ele>783.243</ele>
        <time>2013-05-02T17:38:51Z</time>
      </trkpt>
      <trkpt lat="39.73359" lon="2.79256">
        <ele>782.375</ele>
        <time>2013-05-02T17:39:03Z</time>
      </trkpt>
      <trkpt lat="39.7336" lon="2.7925">
        <ele>780.512</ele>
        <time>2013-05-02T17:39:16Z</time>
      </trkpt>
      <trkpt lat="39.7336" lon="2.79246">
        <ele>779.784</ele>
        <time>2013-05-02T17:39:21Z</time>
      </trkpt>
      <trkpt lat="39.73359" lon="2.79242">
        <ele>779.216</ele>
        <time>2013-05-02T17:39:26Z</time>
      </trkpt>
      <trkpt lat="39.7336" lon="2.79237">
        <ele>779.891</ele>
        <time>2013-05-02T17:39:38Z</time>
      </trkpt>
      <trkpt lat="39.73367" lon="2.79232">
        <ele>779.275</ele>
        <time>2013-05-02T17:39:47Z</time>
      </trkpt>
      <trkpt lat="39.73368" lon="2.79227">
        <ele>779.759</ele>
        <time>2013-05-02T17:40:03Z</time>
      </trkpt>
      <trkpt lat="39.73371" lon="2.79224">
        <ele>779.703</ele>
        <time>2013-05-02T17:40:09Z</time>
      </trkpt>
      <trkpt lat="39.73382" lon="2.79215">
        <ele>779.992</ele>
        <time>2013-05-02T17:40:23Z</time>
      </trkpt>
      <trkpt lat="39.73384" lon="2.79205">
        <ele>780.178</ele>
        <time>2013-05-02T17:40:35Z</time>
      </trkpt>
      <trkpt lat="39.73382" lon="2.7919">
        <ele>779.585</ele>
        <time>2013-05-02T17:40:46Z</time>
      </trkpt>
      <trkpt lat="39.73382" lon="2.79184">
        <ele>778.701</ele>
        <time>2013-05-02T17:40:58Z</time>
      </trkpt>
      <trkpt lat="39.73385" lon="2.79168">
        <ele>778.264</ele>
        <time>2013-05-02T17:41:11Z</time>
      </trkpt>
      <trkpt lat="39.73384" lon="2.79165">
        <ele>778.041</ele>
        <time>2013-05-02T17:41:13Z</time>
      </trkpt>
      <trkpt lat="39.73387" lon="2.79151">
        <ele>776.884</ele>
        <time>2013-05-02T17:41:27Z</time>
      </trkpt>
      <trkpt lat="39.73388" lon="2.7914">
        <ele>775.306</ele>
        <time>2013-05-02T17:41:37Z</time>
      </trkpt>
      <trkpt lat="39.73386" lon="2.79138">
        <ele>774.965</ele>
        <time>2013-05-02T17:41:39Z</time>
      </trkpt>
      <trkpt lat="39.73373" lon="2.79137">
        <ele>771.967</ele>
        <time>2013-05-02T17:41:52Z</time>
      </trkpt>
      <trkpt lat="39.7337" lon="2.79142">
        <ele>770.7</ele>
        <time>2013-05-02T17:42:10Z</time>
      </trkpt>
      <trkpt lat="39.73367" lon="2.79153">
        <ele>768.692</ele>
        <time>2013-05-02T17:42:25Z</time>
      </trkpt>
      <trkpt lat="39.73364" lon="2.79161">
        <ele>765.559</ele>
        <time>2013-05-02T17:42:41Z</time>
      </trkpt>
      <trkpt lat="39.7336" lon="2.79169">
        <ele>762.96</ele>
        <time>2013-05-02T17:42:55Z</time>
      </trkpt>
      <trkpt lat="39.73355" lon="2.79173">
        <ele>760.259</ele>
        <time>2013-05-02T17:43:25Z</time>
      </trkpt>
      <trkpt lat="39.7335" lon="2.79175">
        <ele>759.958</ele>
        <time>2013-05-02T17:43:41Z</time>
      </trkpt>
      <trkpt lat="39.73341" lon="2.79187">
        <ele>759.755</ele>
        <time>2013-05-02T17:43:57Z</time>
      </trkpt>
      <trkpt lat="39.73337" lon="2.79193">
        <ele>759.591</ele>
        <time>2013-05-02T17:44:15Z</time>
      </trkpt>
      <trkpt lat="39.7333" lon="2.79199">
        <ele>759.626</ele>
        <time>2013-05-02T17:44:30Z</time>
      </trkpt>
      <trkpt lat="39.73323" lon="2.792">
        <ele>759.463</ele>
        <time>2013-05-02T17:44:46Z</time>
      </trkpt>
      <trkpt lat="39.73315" lon="2.7921">
        <ele>759.757</ele>
        <time>2013-05-02T17:45:03Z</time>
      </trkpt>
      <trkpt lat="39.73304" lon="2.7921">
        <ele>760.031</ele>
        <time>2013-05-02T17:45:15Z</time>
      </trkpt>
      <trkpt lat="39.73298" lon="2.7921">
        <ele>759.915</ele>
        <time>2013-05-02T17:45:20Z</time>
      </trkpt>
      <trkpt lat="39.73296" lon="2.79234">
        <ele>757.343</ele>
        <time>2013-05-02T17:45:31Z</time>
      </trkpt>
      <trkpt lat="39.73293" lon="2.79233">
        <ele>756.783</ele>
        <time>2013-05-02T17:45:38Z</time>
      </trkpt>
      <trkpt lat="39.7329" lon="2.79215">
        <ele>755.283</ele>
        <time>2013-05-02T17:45:45Z</time>
      </trkpt>
      <trkpt lat="39.7329" lon="2.79219">
        <ele>752.376</ele>
        <time>2013-05-02T17:45:50Z</time>
      </trkpt>
      <trkpt lat="39.73293" lon="2.79222">
        <ele>749.541</ele>
        <time>2013-05-02T17:45:55Z</time>
      </trkpt>
      <trkpt lat="39.73298" lon="2.79207">
        <ele>743.143</ele>
        <time>2013-05-02T17:46:10Z</time>
      </trkpt>
      <trkpt lat="39.73291" lon="2.79209">
        <ele>736.183</ele>
        <time>2013-05-02T17:46:21Z</time>
      </trkpt>
      <trkpt lat="39.7328" lon="2.79212">
        <ele>730.224</ele>
        <time>2013-05-02T17:46:36Z</time>
      </trkpt>
      <trkpt lat="39.73277" lon="2.79217">
        <ele>727.605</ele>
        <time>2013-05-02T17:46:47Z</time>
      </trkpt>
      <trkpt lat="39.73273" lon="2.7922">
        <ele>727.036</ele>
        <time>2013-05-02T17:46:51Z</time>
      </trkpt>
      <trkpt lat="39.73268" lon="2.79226">
        <ele>725.97</ele>
        <time>2013-05-02T17:47:04Z</time>
      </trkpt>
      <trkpt lat="39.73262" lon="2.79233">
        <ele>724.862</ele>
        <time>2013-05-02T17:47:18Z</time>
      </trkpt>
      <trkpt lat="39.73255" lon="2.79248">
        <ele>722.012</ele>
        <time>2013-05-02T17:47:31Z</time>
      </trkpt>
      <trkpt lat="39.73239" lon="2.79252">
        <ele>716.905</ele>
        <time>2013-05-02T17:47:43Z</time>
      </trkpt>
      <trkpt lat="39.73238" lon="2.79252">
        <ele>715.647</ele>
        <time>2013-05-02T17:47:47Z</time>
      </trkpt>
      <trkpt lat="39.7324" lon="2.79243">
        <ele>713.075</ele>
        <time>2013-05-02T17:47:54Z</time>
      </trkpt>
      <trkpt lat="39.73239" lon="2.79234">
        <ele>709.912</ele>
        <time>2013-05-02T17:48:00Z</time>
      </trkpt>
      <trkpt lat="39.73241" lon="2.79231">
        <ele>708.547</ele>
        <time>2013-05-02T17:48:11Z</time>
      </trkpt>
      <trkpt lat="39.73244" lon="2.79214">
        <ele>707.592</ele>
        <time>2013-05-02T17:48:29Z</time>
      </trkpt>
      <trkpt lat="39.73249" lon="2.79203">
        <ele>706.943</ele>
        <time>2013-05-02T17:48:40Z</time>
      </trkpt>
      <trkpt lat="39.73252" lon="2.79186">
        <ele>705.761</ele>
        <time>2013-05-02T17:49:01Z</time>
      </trkpt>
      <trkpt lat="39.73247" lon="2.79195">
        <ele>704.807</ele>
        <time>2013-05-02T17:49:18Z</time>
      </trkpt>
      <trkpt lat="39.73238" lon="2.79198">
        <ele>703.776</ele>
        <time>2013-05-02T17:49:27Z</time>
      </trkpt>
      <trkpt lat="39.73232" lon="2.79209">
        <ele>701.747</ele>
        <time>2013-05-02T17:49:40Z</time>
      </trkpt>
      <trkpt lat="39.73221" lon="2.7921">
        <ele>698.714</ele>
        <time>2013-05-02T17:49:54Z</time>
      </trkpt>
      <trkpt lat="39.7321" lon="2.79216">
        <ele>697.97</ele>
        <time>2013-05-02T17:50:06Z</time>
      </trkpt>
      <trkpt lat="39.73203" lon="2.7922">
        <ele>697.509</ele>
        <time>2013-05-02T17:50:19Z</time>
      </trkpt>
      <trkpt lat="39.73201" lon="2.79218">
        <ele>697.493</ele>
        <time>2013-05-02T17:50:21Z</time>
      </trkpt>
      <trkpt lat="39.73203" lon="2.79218">
        <ele>697.432</ele>
        <time>2013-05-02T17:50:23Z</time>
      </trkpt>
      <trkpt lat="39.73206" lon="2.79213">
        <ele>697.164</ele>
        <time>2013-05-02T17:50:26Z</time>
      </trkpt>
      <trkpt lat="39.73206" lon="2.79209">
        <ele>696.164</ele>
        <time>2013-05-02T17:50:37Z</time>
      </trkpt>
      <trkpt lat="39.73216" lon="2.79198">
        <ele>692.682</ele>
        <time>2013-05-02T17:50:53Z</time>
      </trkpt>
      <trkpt lat="39.73219" lon="2.79196">
        <ele>691.906</ele>
        <time>2013-05-02T17:50:57Z</time>
      </trkpt>
      <trkpt lat="39.73223" lon="2.79191">
        <ele>690.462</ele>
        <time>2013-05-02T17:51:03Z</time>
      </trkpt>
      <trkpt lat="39.73223" lon="2.79189">
        <ele>689.645</ele>
        <time>2013-05-02T17:51:05Z</time>
      </trkpt>
      <trkpt lat="39.73227" lon="2.79177">
        <ele>687.302</ele>
        <time>2013-05-02T17:51:14Z</time>
      </trkpt>
      <trkpt lat="39.73232" lon="2.7917">
        <ele>687.549</ele>
        <time>2013-05-02T17:51:19Z</time>
      </trkpt>
      <trkpt lat="39.73239" lon="2.79152">
        <ele>687.975</ele>
        <time>2013-05-02T17:51:34Z</time>
      </trkpt>
      <trkpt lat="39.73244" lon="2.79133">
        <ele>684.401</ele>
        <time>2013-05-02T17:51:51Z</time>
      </trkpt>
      <trkpt lat="39.73243" lon="2.79133">
        <ele>684.214</ele>
        <time>2013-05-02T17:51:52Z</time>
      </trkpt>
      <trkpt lat="39.73235" lon="2.79137">
        <ele>683.054</ele>
        <time>2013-05-02T17:52:02Z</time>
      </trkpt>
      <trkpt lat="39.73225" lon="2.79142">
        <ele>681.238</ele>
        <time>2013-05-02T17:52:13Z</time>
      </trkpt>
      <trkpt lat="39.73218" lon="2.79158">
        <ele>678.483</ele>
        <time>2013-05-02T17:52:29Z</time>
      </trkpt>
      <trkpt lat="39.73209" lon="2.7917">
        <ele>674.976</ele>
        <time>2013-05-02T17:52:44Z</time>
      </trkpt>
      <trkpt lat="39.732" lon="2.79173">
        <ele>672.579</ele>
        <time>2013-05-02T17:52:54Z</time>
      </trkpt>
      <trkpt lat="39.73188" lon="2.79183">
        <ele>670.79</ele>
        <time>2013-05-02T17:53:06Z</time>
      </trkpt>
      <trkpt lat="39.73182" lon="2.7919">
        <ele>668.821</ele>
        <time>2013-05-02T17:53:15Z</time>
      </trkpt>
      <trkpt lat="39.73177" lon="2.79206">
        <ele>667.15</ele>
        <time>2013-05-02T17:53:28Z</time>
      </trkpt>
      <trkpt lat="39.73169" lon="2.7921">
        <ele>666.086</ele>
        <time>2013-05-02T17:53:37Z</time>
      </trkpt>
      <trkpt lat="39.73164" lon="2.79214">
        <ele>665.94</ele>
        <time>2013-05-02T17:53:42Z</time>
      </trkpt>
      <trkpt lat="39.73158" lon="2.79225">
        <ele>666.052</ele>
        <time>2013-05-02T17:53:55Z</time>
      </trkpt>
      <trkpt lat="39.73148" lon="2.79233">
        <ele>666.336</ele>
        <time>2013-05-02T17:54:10Z</time>
      </trkpt>
      <trkpt lat="39.73134" lon="2.79255">
        <ele>666.318</ele>
        <time>2013-05-02T17:54:29Z</time>
      </trkpt>
      <trkpt lat="39.73125" lon="2.79272">
        <ele>666.174</ele>
        <time>2013-05-02T17:54:45Z</time>
      </trkpt>
      <trkpt lat="39.73118" lon="2.7928">
        <ele>665.833</ele>
        <time>2013-05-02T17:54:55Z</time>
      </trkpt>
      <trkpt lat="39.73104" lon="2.79288">
        <ele>664.142</ele>
        <time>2013-05-02T17:55:15Z</time>
      </trkpt>
      <trkpt lat="39.73094" lon="2.79295">
        <ele>662.446</ele>
        <time>2013-05-02T17:55:27Z</time>
      </trkpt>
      <trkpt lat="39.73085" lon="2.79314">
        <ele>659.859</ele>
        <time>2013-05-02T17:55:47Z</time>
      </trkpt>
      <trkpt lat="39.73081" lon="2.79322">
        <ele>658.633</ele>
        <time>2013-05-02T17:56:03Z</time>
      </trkpt>
      <trkpt lat="39.7307" lon="2.79336">
        <ele>657.91</ele>
        <time>2013-05-02T17:56:23Z</time>
      </trkpt>
      <trkpt lat="39.73058" lon="2.79339">
        <ele>657.174</ele>
        <time>2013-05-02T17:56:39Z</time>
      </trkpt>
      <trkpt lat="39.73054" lon="2.79339">
        <ele>656.815</ele>
        <time>2013-05-02T17:56:44Z</time>
      </trkpt>
      <trkpt lat="39.7305" lon="2.79337">
        <ele>656.666</ele>
        <time>2013-05-02T17:56:47Z</time>
      </trkpt>
      <trkpt lat="39.73038" lon="2.79351">
        <ele>656.391</ele>
        <time>2013-05-02T17:57:03Z</time>
      </trkpt>
      <trkpt lat="39.73026" lon="2.79361">
        <ele>656.55</ele>
        <time>2013-05-02T17:57:20Z</time>
      </trkpt>
      <trkpt lat="39.73016" lon="2.79369">
        <ele>656.416</ele>
        <time>2013-05-02T17:57:34Z</time>
      </trkpt>
      <trkpt lat="39.73014" lon="2.79368">
        <ele>656.362</ele>
        <time>2013-05-02T17:57:37Z</time>
      </trkpt>
      <trkpt lat="39.73009" lon="2.79368">
        <ele>656.324</ele>
        <time>2013-05-02T17:57:41Z</time>
      </trkpt>
      <trkpt lat="39.73001" lon="2.79372">
        <ele>656.457</ele>
        <time>2013-05-02T17:57:53Z</time>
      </trkpt>
      <trkpt lat="39.72991" lon="2.79377">
        <ele>656.178</ele>
        <time>2013-05-02T17:58:07Z</time>
      </trkpt>
      <trkpt lat="39.7298" lon="2.79379">
        <ele>655.955</ele>
        <time>2013-05-02T17:58:21Z</time>
      </trkpt>
      <trkpt lat="39.72966" lon="2.79384">
        <ele>655.923</ele>
        <time>2013-05-02T17:58:39Z</time>
      </trkpt>
      <trkpt lat="39.72965" lon="2.79381">
        <ele>656.028</ele>
        <time>2013-05-02T17:58:43Z</time>
      </trkpt>
      <trkpt lat="39.7297" lon="2.79366">
        <ele>656.848</ele>
        <time>2013-05-02T17:58:54Z</time>
      </trkpt>
      <trkpt lat="39.72973" lon="2.79362">
        <ele>656.958</ele>
        <time>2013-05-02T17:58:58Z</time>
      </trkpt>
      <trkpt lat="39.72983" lon="2.79352">
        <ele>658.703</ele>
        <time>2013-05-02T17:59:12Z</time>
      </trkpt>
      <trkpt lat="39.72987" lon="2.79346">
        <ele>658.873</ele>
        <time>2013-05-02T17:59:22Z</time>
      </trkpt>
      <trkpt lat="39.72979" lon="2.79349">
        <ele>658.535</ele>
        <time>2013-05-02T17:59:34Z</time>
      </trkpt>
      <trkpt lat="39.72984" lon="2.79336">
        <ele>657.623</ele>
        <time>2013-05-02T17:59:43Z</time>
      </trkpt>
      <trkpt lat="39.72986" lon="2.79325">
        <ele>656.89</ele>
        <time>2013-05-02T17:59:53Z</time>
      </trkpt>
      <trkpt lat="39.72987" lon="2.79316">
        <ele>656.649</ele>
        <time>2013-05-02T17:59:58Z</time>
      </trkpt>
      <trkpt lat="39.72991" lon="2.79297">
        <ele>656.087</ele>
        <time>2013-05-02T18:00:17Z</time>
      </trkpt>
      <trkpt lat="39.72999" lon="2.7928">
        <ele>655.388</ele>
        <time>2013-05-02T18:00:24Z</time>
      </trkpt>
      <trkpt lat="39.73" lon="2.79267">
        <ele>651.892</ele>
        <time>2013-05-02T18:00:32Z</time>
      </trkpt>
      <trkpt lat="39.73" lon="2.79267">
        <ele>651.362</ele>
        <time>2013-05-02T18:00:34Z</time>
      </trkpt>
      <trkpt lat="39.73002" lon="2.79266">
        <ele>650.847</ele>
        <time>2013-05-02T18:00:36Z</time>
      </trkpt>
      <trkpt lat="39.73005" lon="2.79258">
        <ele>649.827</ele>
        <time>2013-05-02T18:00:50Z</time>
      </trkpt>
      <trkpt lat="39.7301" lon="2.79245">
        <ele>649.032</ele>
        <time>2013-05-02T18:01:04Z</time>
      </trkpt>
      <trkpt lat="39.73015" lon="2.79229">
        <ele>648.134</ele>
        <time>2013-05-02T18:01:20Z</time>
      </trkpt>
      <trkpt lat="39.73019" lon="2.79221">
        <ele>647.835</ele>
        <time>2013-05-02T18:01:25Z</time>
      </trkpt>
      <trkpt lat="39.73026" lon="2.79203">
        <ele>646.424</ele>
        <time>2013-05-02T18:01:35Z</time>
      </trkpt>
      <trkpt lat="39.73034" lon="2.79194">
        <ele>643.998</ele>
        <time>2013-05-02T18:01:46Z</time>
      </trkpt>
      <trkpt lat="39.73035" lon="2.79187">
        <ele>642.629</ele>
        <time>2013-05-02T18:01:53Z</time>
      </trkpt>
      <trkpt lat="39.73034" lon="2.79171">
        <ele>640.094</ele>
        <time>2013-05-02T18:02:04Z</time>
      </trkpt>
      <trkpt lat="39.73036" lon="2.79166">
        <ele>638.672</ele>
        <time>2013-05-02T18:02:13Z</time>
      </trkpt>
      <trkpt lat="39.73039" lon="2.79161">
        <ele>637.973</ele>
        <time>2013-05-02T18:02:17Z</time>
      </trkpt>
      <trkpt lat="39.73044" lon="2.7915">
        <ele>636.128</ele>
        <time>2013-05-02T18:02:28Z</time>
      </trkpt>
      <trkpt lat="39.73047" lon="2.79138">
        <ele>635.136</ele>
        <time>2013-05-02T18:02:33Z</time>
      </trkpt>
      <trkpt lat="39.73046" lon="2.79134">
        <ele>634.783</ele>
        <time>2013-05-02T18:02:35Z</time>
      </trkpt>
      <trkpt lat="39.73048" lon="2.79124">
        <ele>634.02</ele>
        <time>2013-05-02T18:02:41Z</time>
      </trkpt>
      <trkpt lat="39.7305" lon="2.79116">
        <ele>636.821</ele>
        <time>2013-05-02T18:02:50Z</time>
      </trkpt>
      <trkpt lat="39.73055" lon="2.79091">
        <ele>640.149</ele>
        <time>2013-05-02T18:03:05Z</time>
      </trkpt>
      <trkpt lat="39.73056" lon="2.79089">
        <ele>640.944</ele>
        <time>2013-05-02T18:03:08Z</time>
      </trkpt>
      <trkpt lat="39.73058" lon="2.79075">
        <ele>641.637</ele>
        <time>2013-05-02T18:03:16Z</time>
      </trkpt>
      <trkpt lat="39.73058" lon="2.7907">
        <ele>640.985</ele>
        <time>2013-05-02T18:03:19Z</time>
      </trkpt>
      <trkpt lat="39.73063" lon="2.79055">
        <ele>639.114</ele>
        <time>2013-05-02T18:03:30Z</time>
      </trkpt>
      <trkpt lat="39.73067" lon="2.79041">
        <ele>637.43</ele>
        <time>2013-05-02T18:03:44Z</time>
      </trkpt>
      <trkpt lat="39.73069" lon="2.79033">
        <ele>636.261</ele>
        <time>2013-05-02T18:03:57Z</time>
      </trkpt>
      <trkpt lat="39.7307" lon="2.79031">
        <ele>636.033</ele>
        <time>2013-05-02T18:03:59Z</time>
      </trkpt>
      <trkpt lat="39.73073" lon="2.79023">
        <ele>634.06</ele>
        <time>2013-05-02T18:04:16Z</time>
      </trkpt>
      <trkpt lat="39.73065" lon="2.79026">
        <ele>632.904</ele>
        <time>2013-05-02T18:04:26Z</time>
      </trkpt>
      <trkpt lat="39.73059" lon="2.79042">
        <ele>631.47</ele>
        <time>2013-05-02T18:04:40Z</time>
      </trkpt>
      <trkpt lat="39.73057" lon="2.79048">
        <ele>630.339</ele>
        <time>2013-05-02T18:04:46Z</time>
      </trkpt>
      <trkpt lat="39.73052" lon="2.79045">
        <ele>628.675</ele>
        <time>2013-05-02T18:05:03Z</time>
      </trkpt>
      <trkpt lat="39.73052" lon="2.79043">
        <ele>628.489</ele>
        <time>2013-05-02T18:05:05Z</time>
      </trkpt>
      <trkpt lat="39.7305" lon="2.79034">
        <ele>627.887</ele>
        <time>2013-05-02T18:05:18Z</time>
      </trkpt>
      <trkpt lat="39.73042" lon="2.79039">
        <ele>627.559</ele>
        <time>2013-05-02T18:05:29Z</time>
      </trkpt>
      <trkpt lat="39.73039" lon="2.79041">
        <ele>627.447</ele>
        <time>2013-05-02T18:05:32Z</time>
      </trkpt>
      <trkpt lat="39.73035" lon="2.79047">
        <ele>626.636</ele>
        <time>2013-05-02T18:05:43Z</time>
      </trkpt>
      <trkpt lat="39.73031" lon="2.7905">
        <ele>625.999</ele>
        <time>2013-05-02T18:05:51Z</time>
      </trkpt>
      <trkpt lat="39.73027" lon="2.79053">
        <ele>625.833</ele>
        <time>2013-05-02T18:05:56Z</time>
      </trkpt>
      <trkpt lat="39.73026" lon="2.79045">
        <ele>623.679</ele>
        <time>2013-05-02T18:06:02Z</time>
      </trkpt>
      <trkpt lat="39.73031" lon="2.79031">
        <ele>618.737</ele>
        <time>2013-05-02T18:06:13Z</time>
      </trkpt>
      <trkpt lat="39.73028" lon="2.79032">
        <ele>617.751</ele>
        <time>2013-05-02T18:06:16Z</time>
      </trkpt>
      <trkpt lat="39.73019" lon="2.79042">
        <ele>613.745</ele>
        <time>2013-05-02T18:06:29Z</time>
      </trkpt>
      <trkpt lat="39.73012" lon="2.79056">
        <ele>610.49</ele>
        <time>2013-05-02T18:06:42Z</time>
      </trkpt>
      <trkpt lat="39.73009" lon="2.79059">
        <ele>609.648</ele>
        <time>2013-05-02T18:06:47Z</time>
      </trkpt>
      <trkpt lat="39.72998" lon="2.79087">
        <ele>607.393</ele>
        <time>2013-05-02T18:07:00Z</time>
      </trkpt>
      <trkpt lat="39.72983" lon="2.79119">
        <ele>606.162</ele>
        <time>2013-05-02T18:07:05Z</time>
      </trkpt>
      <trkpt lat="39.72979" lon="2.79107">
        <ele>600.139</ele>
        <time>2013-05-02T18:07:15Z</time>
      </trkpt>
      <trkpt lat="39.72975" lon="2.79106">
        <ele>595.411</ele>
        <time>2013-05-02T18:07:28Z</time>
      </trkpt>
      <trkpt lat="39.72968" lon="2.79114">
        <ele>586.237</ele>
        <time>2013-05-02T18:07:41Z</time>
      </trkpt>
      <trkpt lat="39.7296" lon="2.79124">
        <ele>579.082</ele>
        <time>2013-05-02T18:07:54Z</time>
      </trkpt>
      <trkpt lat="39.7296" lon="2.79125">
        <ele>577.634</ele>
        <time>2013-05-02T18:07:57Z</time>
      </trkpt>
      <trkpt lat="39.72953" lon="2.79137">
        <ele>571.487</ele>
        <time>2013-05-02T18:08:12Z</time>
      </trkpt>
      <trkpt lat="39.72947" lon="2.79145">
        <ele>564.682</ele>
        <time>2013-05-02T18:08:25Z</time>
      </trkpt>
      <trkpt lat="39.72942" lon="2.7915">
        <ele>562.446</ele>
        <time>2013-05-02T18:08:31Z</time>
      </trkpt>
      <trkpt lat="39.72939" lon="2.7915">
        <ele>553.418</ele>
        <time>2013-05-02T18:08:42Z</time>
      </trkpt>
      <trkpt lat="39.72941" lon="2.79147">
        <ele>547.325</ele>
        <time>2013-05-02T18:08:44Z</time>
      </trkpt>
      <trkpt lat="39.72941" lon="2.79145">
        <ele>543.752</ele>
        <time>2013-05-02T18:08:46Z</time>
      </trkpt>
      <trkpt lat="39.72946" lon="2.79136">
        <ele>535.435</ele>
        <time>2013-05-02T18:08:54Z</time>
      </trkpt>
      <trkpt lat="39.72954" lon="2.79117">
        <ele>529.195</ele>
        <time>2013-05-02T18:09:07Z</time>
      </trkpt>
      <trkpt lat="39.72958" lon="2.79109">
        <ele>526.605</ele>
        <time>2013-05-02T18:09:20Z</time>
      </trkpt>
      <trkpt lat="39.72957" lon="2.79107">
        <ele>526.724</ele>
        <time>2013-05-02T18:09:29Z</time>
      </trkpt>
      <trkpt lat="39.72957" lon="2.79103">
        <ele>527.113</ele>
        <time>2013-05-02T18:09:32Z</time>
      </trkpt>
      <trkpt lat="39.72959" lon="2.79093">
        <ele>529.12</ele>
        <time>2013-05-02T18:09:40Z</time>
      </trkpt>
      <trkpt lat="39.72961" lon="2.79091">
        <ele>529.841</ele>
        <time>2013-05-02T18:09:42Z</time>
      </trkpt>
      <trkpt lat="39.72969" lon="2.79075">
        <ele>531.776</ele>
        <time>2013-05-02T18:09:54Z</time>
      </trkpt>
      <trkpt lat="39.7297" lon="2.79068">
        <ele>532.387</ele>
        <time>2013-05-02T18:09:58Z</time>
      </trkpt>
      <trkpt lat="39.72979" lon="2.79053">
        <ele>535.414</ele>
        <time>2013-05-02T18:10:11Z</time>
      </trkpt>
      <trkpt lat="39.72985" lon="2.79043">
        <ele>535.58</ele>
        <time>2013-05-02T18:10:20Z</time>
      </trkpt>
      <trkpt lat="39.72995" lon="2.79026">
        <ele>531.906</ele>
        <time>2013-05-02T18:10:35Z</time>
      </trkpt>
      <trkpt lat="39.73006" lon="2.79011">
        <ele>532.409</ele>
        <time>2013-05-02T18:10:49Z</time>
      </trkpt>
      <trkpt lat="39.73018" lon="2.78997">
        <ele>530.885</ele>
        <time>2013-05-02T18:11:02Z</time>
      </trkpt>
      <trkpt lat="39.73023" lon="2.78981">
        <ele>528.582</ele>
        <time>2013-05-02T18:11:14Z</time>
      </trkpt>
      <trkpt lat="39.73024" lon="2.78969">
        <ele>526.63</ele>
        <time>2013-05-02T18:11:24Z</time>
      </trkpt>
      <trkpt lat="39.73023" lon="2.78956">
        <ele>525.323</ele>
        <time>2013-05-02T18:11:31Z</time>
      </trkpt>
      <trkpt lat="39.73023" lon="2.78951">
        <ele>524.803</ele>
        <time>2013-05-02T18:11:34Z</time>
      </trkpt>
      <trkpt lat="39.73017" lon="2.78944">
        <ele>523.185</ele>
        <time>2013-05-02T18:11:43Z</time>
      </trkpt>
      <trkpt lat="39.73016" lon="2.78936">
        <ele>523.874</ele>
        <time>2013-05-02T18:11:48Z</time>
      </trkpt>
      <trkpt lat="39.73014" lon="2.7893">
        <ele>524.123</ele>
        <time>2013-05-02T18:11:53Z</time>
      </trkpt>
      <trkpt lat="39.73009" lon="2.78928">
        <ele>524.335</ele>
        <time>2013-05-02T18:11:58Z</time>
      </trkpt>
      <trkpt lat="39.72998" lon="2.78932">
        <ele>523.616</ele>
        <time>2013-05-02T18:12:11Z</time>
      </trkpt>
      <trkpt lat="39.72995" lon="2.78933">
        <ele>522.972</ele>
        <time>2013-05-02T18:12:42Z</time>
      </trkpt>
      <trkpt lat="39.72982" lon="2.78939">
        <ele>525.021</ele>
        <time>2013-05-02T18:13:19Z</time>
      </trkpt>
      <trkpt lat="39.7298" lon="2.78941">
        <ele>525.611</ele>
        <time>2013-05-02T18:13:21Z</time>
      </trkpt>
      <trkpt lat="39.72954" lon="2.78944">
        <ele>530.014</ele>
        <time>2013-05-02T18:13:44Z</time>
      </trkpt>
      <trkpt lat="39.72949" lon="2.78943">
        <ele>530.1</ele>
        <time>2013-05-02T18:13:49Z</time>
      </trkpt>
      <trkpt lat="39.72935" lon="2.78935">
        <ele>529.592</ele>
        <time>2013-05-02T18:14:03Z</time>
      </trkpt>
      <trkpt lat="39.72921" lon="2.78924">
        <ele>529.695</ele>
        <time>2013-05-02T18:14:18Z</time>
      </trkpt>
      <trkpt lat="39.72913" lon="2.7892">
        <ele>529.885</ele>
        <time>2013-05-02T18:14:27Z</time>
      </trkpt>
      <trkpt lat="39.72897" lon="2.78922">
        <ele>530.621</ele>
        <time>2013-05-02T18:14:42Z</time>
      </trkpt>
      <trkpt lat="39.72888" lon="2.78921">
        <ele>531.354</ele>
        <time>2013-05-02T18:14:50Z</time>
      </trkpt>
      <trkpt lat="39.72882" lon="2.78919">
        <ele>531.77</ele>
        <time>2013-05-02T18:14:56Z</time>
      </trkpt>
      <trkpt lat="39.72871" lon="2.78907">
        <ele>532.791</ele>
        <time>2013-05-02T18:15:05Z</time>
      </trkpt>
      <trkpt lat="39.72868" lon="2.78894">
        <ele>534.416</ele>
        <time>2013-05-02T18:15:16Z</time>
      </trkpt>
      <trkpt lat="39.72875" lon="2.78894">
        <ele>536.255</ele>
        <time>2013-05-02T18:15:23Z</time>
      </trkpt>
      <trkpt lat="39.72881" lon="2.78899">
        <ele>538.49</ele>
        <time>2013-05-02T18:15:30Z</time>
      </trkpt>
      <trkpt lat="39.72893" lon="2.78902">
        <ele>541.512</ele>
        <time>2013-05-02T18:15:43Z</time>
      </trkpt>
      <trkpt lat="39.72894" lon="2.78902">
        <ele>541.787</ele>
        <time>2013-05-02T18:15:44Z</time>
      </trkpt>
      <trkpt lat="39.72896" lon="2.78902">
        <ele>543.073</ele>
        <time>2013-05-02T18:15:46Z</time>
      </trkpt>
      <trkpt lat="39.72912" lon="2.789">
        <ele>542.749</ele>
        <time>2013-05-02T18:16:01Z</time>
      </trkpt>
      <trkpt lat="39.72915" lon="2.789">
        <ele>542.03</ele>
        <time>2013-05-02T18:16:04Z</time>
      </trkpt>
      <trkpt lat="39.72918" lon="2.78894">
        <ele>544.438</ele>
        <time>2013-05-02T18:16:09Z</time>
      </trkpt>
      <trkpt lat="39.72908" lon="2.78889">
        <ele>545.249</ele>
        <time>2013-05-02T18:16:25Z</time>
      </trkpt>
      <trkpt lat="39.72895" lon="2.78884">
        <ele>548.18</ele>
        <time>2013-05-02T18:16:38Z</time>
      </trkpt>
      <trkpt lat="39.7289" lon="2.78881">
        <ele>549.979</ele>
        <time>2013-05-02T18:16:43Z</time>
      </trkpt>
      <trkpt lat="39.72877" lon="2.78867">
        <ele>553.017</ele>
        <time>2013-05-02T18:16:56Z</time>
      </trkpt>
      <trkpt lat="39.72874" lon="2.78854">
        <ele>559.134</ele>
        <time>2013-05-02T18:17:10Z</time>
      </trkpt>
      <trkpt lat="39.72872" lon="2.78853">
        <ele>555.493</ele>
        <time>2013-05-02T18:17:23Z</time>
      </trkpt>
      <trkpt lat="39.72886" lon="2.78847">
        <ele>560.527</ele>
        <time>2013-05-02T18:17:38Z</time>
      </trkpt>
      <trkpt lat="39.72901" lon="2.78855">
        <ele>563.19</ele>
        <time>2013-05-02T18:17:53Z</time>
      </trkpt>
      <trkpt lat="39.72905" lon="2.78857">
        <ele>563.784</ele>
        <time>2013-05-02T18:17:56Z</time>
      </trkpt>
      <trkpt lat="39.72916" lon="2.78865">
        <ele>565.054</ele>
        <time>2013-05-02T18:18:12Z</time>
      </trkpt>
      <trkpt lat="39.72917" lon="2.78865">
        <ele>564.659</ele>
        <time>2013-05-02T18:18:20Z</time>
      </trkpt>
      <trkpt lat="39.72916" lon="2.78869">
        <ele>564.677</ele>
        <time>2013-05-02T18:18:39Z</time>
      </trkpt>
      <trkpt lat="39.72916" lon="2.78869">
        <ele>564.701</ele>
        <time>2013-05-02T18:19:07Z</time>
      </trkpt>
      <trkpt lat="39.72917" lon="2.78866">
        <ele>560.698</ele>
        <time>2013-05-02T18:19:23Z</time>
      </trkpt>
      <trkpt lat="39.72916" lon="2.78865">
        <ele>560.506</ele>
        <time>2013-05-02T18:19:40Z</time>
      </trkpt>
    </trkseg>
  </trk>
</gpx>